Albion, Idaho
Current Conditions -  °F | °C
As of 10:53 PM on Tuesday 25 Nov 2014 (Local Time) from KBYI Reporting Station
Clear Clear  
Wind Chill: 41°   Ceiling: Unl
Heat Index: 48°   Visibility: 10mi
Dew Point: 35°   Wind: 21mph
Humidity: 61%   Direction: 260°W
Pressure: 30.25"   Gusts: 31mph
Location:  42.41°N, 113.58°W
Report Text: KBYI 260553Z AUTO 26018G27KT 10SM CLR 09/02 A3025 RMK AO2 PK WND 26030/0539 SLP234 60000 T00890017 10106 20089 53006
Loading
Personal Weather Stations






























Interactive Weather Map New forecast layout! Learn more

10-Day Weather Forecast

Advertisements
Track Severe Weather on mobile